sensor_id;sensor_type;location;lat;lon;timestamp;P1;durP1;ratioP1;P2;durP2;ratioP2
31004;SDS011;17676;52.254;4.490;2023-08-30T00:00:51;3.90;;;2.40;;
31004;SDS011;17676;52.254;4.490;2023-08-30T00:03:18;6.45;;;2.75;;
31004;SDS011;17676;52.254;4.490;2023-08-30T00:05:43;4.93;;;3.08;;
31004;SDS011;17676;52.254;4.490;2023-08-30T00:08:09;3.88;;;3.08;;
31004;SDS011;17676;52.254;4.490;2023-08-30T00:10:35;5.80;;;3.00;;
31004;SDS011;17676;52.254;4.490;2023-08-30T00:13:00;2.72;;;2.45;;
31004;SDS011;17676;52.254;4.490;2023-08-30T00:15:27;4.07;;;2.90;;
31004;SDS011;17676;52.254;4.490;2023-08-30T00:17:52;5.35;;;3.00;;
31004;SDS011;17676;52.254;4.490;2023-08-30T00:20:18;3.20;;;2.85;;
31004;SDS011;17676;52.254;4.490;2023-08-30T00:22:44;3.80;;;2.88;;
31004;SDS011;17676;52.254;4.490;2023-08-30T00:25:10;4.55;;;3.38;;
31004;SDS011;17676;52.254;4.490;2023-08-30T00:27:35;5.95;;;2.90;;
31004;SDS011;17676;52.254;4.490;2023-08-30T00:30:01;5.75;;;3.72;;
31004;SDS011;17676;52.254;4.490;2023-08-30T00:32:27;3.90;;;3.05;;
31004;SDS011;17676;52.254;4.490;2023-08-30T00:34:53;5.65;;;3.70;;
31004;SDS011;17676;52.254;4.490;2023-08-30T00:37:18;4.35;;;3.45;;
31004;SDS011;17676;52.254;4.490;2023-08-30T00:39:44;4.35;;;3.95;;
31004;SDS011;17676;52.254;4.490;2023-08-30T00:42:10;7.07;;;3.83;;
31004;SDS011;17676;52.254;4.490;2023-08-30T00:44:38;4.03;;;3.67;;
31004;SDS011;17676;52.254;4.490;2023-08-30T00:47:03;5.43;;;3.78;;
31004;SDS011;17676;52.254;4.490;2023-08-30T00:49:29;6.93;;;4.00;;
31004;SDS011;17676;52.254;4.490;2023-08-30T00:51:56;5.70;;;3.83;;
31004;SDS011;17676;52.254;4.490;2023-08-30T00:54:24;4.25;;;3.85;;
31004;SDS011;17676;52.254;4.490;2023-08-30T00:56:49;7.45;;;4.05;;
31004;SDS011;17676;52.254;4.490;2023-08-30T00:59:18;5.47;;;4.80;;
31004;SDS011;17676;52.254;4.490;2023-08-30T01:01:44;5.03;;;4.38;;
31004;SDS011;17676;52.254;4.490;2023-08-30T01:04:12;5.10;;;3.92;;
31004;SDS011;17676;52.254;4.490;2023-08-30T01:06:38;7.07;;;4.72;;
31004;SDS011;17676;52.254;4.490;2023-08-30T01:09:04;6.00;;;3.95;;
31004;SDS011;17676;52.254;4.490;2023-08-30T01:11:36;8.57;;;4.72;;
31004;SDS011;17676;52.254;4.490;2023-08-30T01:14:20;5.70;;;4.03;;
31004;SDS011;17676;52.254;4.490;2023-08-30T01:16:50;6.13;;;4.28;;
31004;SDS011;17676;52.254;4.490;2023-08-30T01:22:05;7.82;;;4.32;;
31004;SDS011;17676;52.254;4.490;2023-08-30T01:24:57;10.98;;;4.90;;
31004;SDS011;17676;52.254;4.490;2023-08-30T01:27:34;7.75;;;4.75;;
31004;SDS011;17676;52.254;4.490;2023-08-30T01:30:02;6.68;;;4.28;;
31004;SDS011;17676;52.254;4.490;2023-08-30T01:32:31;5.68;;;3.90;;
31004;SDS011;17676;52.254;4.490;2023-08-30T01:35:00;5.80;;;4.65;;
31004;SDS011;17676;52.254;4.490;2023-08-30T01:37:27;5.93;;;4.10;;
31004;SDS011;17676;52.254;4.490;2023-08-30T01:39:54;6.90;;;4.50;;
31004;SDS011;17676;52.254;4.490;2023-08-30T01:42:22;7.47;;;4.25;;
31004;SDS011;17676;52.254;4.490;2023-08-30T01:44:49;5.72;;;3.85;;
31004;SDS011;17676;52.254;4.490;2023-08-30T01:47:19;5.25;;;4.57;;
31004;SDS011;17676;52.254;4.490;2023-08-30T01:49:47;6.60;;;4.93;;
31004;SDS011;17676;52.254;4.490;2023-08-30T01:52:13;6.90;;;4.63;;
31004;SDS011;17676;52.254;4.490;2023-08-30T01:54:40;5.47;;;4.03;;
31004;SDS011;17676;52.254;4.490;2023-08-30T01:57:07;5.95;;;4.45;;
31004;SDS011;17676;52.254;4.490;2023-08-30T01:59:40;8.38;;;4.90;;
31004;SDS011;17676;52.254;4.490;2023-08-30T02:02:06;7.07;;;4.45;;
31004;SDS011;17676;52.254;4.490;2023-08-30T02:04:31;7.28;;;4.90;;
31004;SDS011;17676;52.254;4.490;2023-08-30T02:06:57;5.22;;;4.43;;
31004;SDS011;17676;52.254;4.490;2023-08-30T02:12:18;8.85;;;4.03;;
31004;SDS011;17676;52.254;4.490;2023-08-30T02:14:48;5.07;;;3.75;;
31004;SDS011;17676;52.254;4.490;2023-08-30T02:17:14;8.50;;;4.78;;
31004;SDS011;17676;52.254;4.490;2023-08-30T02:19:43;9.75;;;4.25;;
31004;SDS011;17676;52.254;4.490;2023-08-30T02:22:09;8.65;;;4.45;;
31004;SDS011;17676;52.254;4.490;2023-08-30T02:24:35;5.50;;;4.40;;
31004;SDS011;17676;52.254;4.490;2023-08-30T02:27:01;6.20;;;4.70;;
31004;SDS011;17676;52.254;4.490;2023-08-30T02:29:26;7.47;;;4.53;;
31004;SDS011;17676;52.254;4.490;2023-08-30T02:31:52;6.07;;;5.20;;
31004;SDS011;17676;52.254;4.490;2023-08-30T02:34:18;6.93;;;4.95;;
31004;SDS011;17676;52.254;4.490;2023-08-30T02:36:44;6.53;;;4.82;;
31004;SDS011;17676;52.254;4.490;2023-08-30T02:39:13;7.10;;;5.65;;
31004;SDS011;17676;52.254;4.490;2023-08-30T02:41:41;8.15;;;5.55;;
31004;SDS011;17676;52.254;4.490;2023-08-30T02:44:13;7.18;;;5.57;;
31004;SDS011;17676;52.254;4.490;2023-08-30T02:46:39;10.50;;;6.38;;
31004;SDS011;17676;52.254;4.490;2023-08-30T02:49:08;6.72;;;5.60;;
31004;SDS011;17676;52.254;4.490;2023-08-30T02:51:38;7.88;;;6.03;;
31004;SDS011;17676;52.254;4.490;2023-08-30T02:54:04;9.25;;;5.60;;
31004;SDS011;17676;52.254;4.490;2023-08-30T02:56:31;11.73;;;6.82;;
31004;SDS011;17676;52.254;4.490;2023-08-30T02:58:57;7.55;;;5.28;;
31004;SDS011;17676;52.254;4.490;2023-08-30T03:01:23;11.23;;;6.22;;
31004;SDS011;17676;52.254;4.490;2023-08-30T03:03:49;9.68;;;6.10;;
31004;SDS011;17676;52.254;4.490;2023-08-30T03:06:15;11.13;;;6.45;;
31004;SDS011;17676;52.254;4.490;2023-08-30T03:08:40;9.50;;;5.75;;
31004;SDS011;17676;52.254;4.490;2023-08-30T03:11:09;9.13;;;5.88;;
31004;SDS011;17676;52.254;4.490;2023-08-30T03:13:35;6.70;;;5.95;;
31004;SDS011;17676;52.254;4.490;2023-08-30T03:16:09;8.05;;;6.75;;
31004;SDS011;17676;52.254;4.490;2023-08-30T03:18:37;12.05;;;7.07;;
31004;SDS011;17676;52.254;4.490;2023-08-30T03:21:07;10.85;;;6.57;;
31004;SDS011;17676;52.254;4.490;2023-08-30T03:23:33;9.82;;;7.47;;
31004;SDS011;17676;52.254;4.490;2023-08-30T03:26:07;10.65;;;7.07;;
31004;SDS011;17676;52.254;4.490;2023-08-30T03:28:36;13.52;;;7.43;;
31004;SDS011;17676;52.254;4.490;2023-08-30T03:31:10;10.57;;;7.85;;
31004;SDS011;17676;52.254;4.490;2023-08-30T03:33:40;12.32;;;8.10;;
31004;SDS011;17676;52.254;4.490;2023-08-30T03:36:07;12.48;;;8.02;;
31004;SDS011;17676;52.254;4.490;2023-08-30T03:38:34;9.70;;;6.88;;
31004;SDS011;17676;52.254;4.490;2023-08-30T03:41:00;9.18;;;6.80;;
31004;SDS011;17676;52.254;4.490;2023-08-30T03:43:26;10.73;;;7.35;;
31004;SDS011;17676;52.254;4.490;2023-08-30T03:45:54;8.55;;;6.43;;
31004;SDS011;17676;52.254;4.490;2023-08-30T03:48:21;8.80;;;7.18;;
31004;SDS011;17676;52.254;4.490;2023-08-30T03:50:47;8.77;;;6.70;;
31004;SDS011;17676;52.254;4.490;2023-08-30T03:53:12;10.32;;;6.90;;
31004;SDS011;17676;52.254;4.490;2023-08-30T03:55:38;9.10;;;6.97;;
31004;SDS011;17676;52.254;4.490;2023-08-30T03:58:05;10.52;;;6.53;;
31004;SDS011;17676;52.254;4.490;2023-08-30T04:00:31;8.15;;;7.05;;
31004;SDS011;17676;52.254;4.490;2023-08-30T04:03:00;10.27;;;6.40;;
31004;SDS011;17676;52.254;4.490;2023-08-30T04:05:26;8.85;;;6.35;;
31004;SDS011;17676;52.254;4.490;2023-08-30T04:07:51;9.32;;;6.72;;
31004;SDS011;17676;52.254;4.490;2023-08-30T04:10:17;8.23;;;6.57;;
31004;SDS011;17676;52.254;4.490;2023-08-30T04:12:43;9.88;;;7.05;;
31004;SDS011;17676;52.254;4.490;2023-08-30T04:15:09;9.52;;;6.70;;
31004;SDS011;17676;52.254;4.490;2023-08-30T04:17:38;11.45;;;6.82;;
31004;SDS011;17676;52.254;4.490;2023-08-30T04:20:03;11.02;;;7.53;;
31004;SDS011;17676;52.254;4.490;2023-08-30T04:22:30;10.27;;;7.18;;
31004;SDS011;17676;52.254;4.490;2023-08-30T04:24:59;11.50;;;7.35;;
31004;SDS011;17676;52.254;4.490;2023-08-30T04:27:25;11.98;;;7.57;;
31004;SDS011;17676;52.254;4.490;2023-08-30T04:29:52;10.70;;;8.23;;
31004;SDS011;17676;52.254;4.490;2023-08-30T04:32:17;10.95;;;7.82;;
31004;SDS011;17676;52.254;4.490;2023-08-30T04:34:43;14.02;;;7.95;;
31004;SDS011;17676;52.254;4.490;2023-08-30T04:37:10;12.63;;;8.80;;
31004;SDS011;17676;52.254;4.490;2023-08-30T04:39:39;10.90;;;7.80;;
31004;SDS011;17676;52.254;4.490;2023-08-30T04:42:05;13.25;;;8.23;;
31004;SDS011;17676;52.254;4.490;2023-08-30T04:44:31;13.20;;;8.50;;
31004;SDS011;17676;52.254;4.490;2023-08-30T04:46:57;9.05;;;7.60;;
31004;SDS011;17676;52.254;4.490;2023-08-30T04:49:23;10.45;;;8.40;;
31004;SDS011;17676;52.254;4.490;2023-08-30T04:51:54;11.38;;;8.52;;
31004;SDS011;17676;52.254;4.490;2023-08-30T04:54:20;11.35;;;8.27;;
31004;SDS011;17676;52.254;4.490;2023-08-30T04:56:48;8.77;;;7.80;;
31004;SDS011;17676;52.254;4.490;2023-08-30T04:59:14;9.75;;;7.78;;
31004;SDS011;17676;52.254;4.490;2023-08-30T05:01:40;11.80;;;7.95;;
31004;SDS011;17676;52.254;4.490;2023-08-30T05:04:09;8.75;;;7.78;;
31004;SDS011;17676;52.254;4.490;2023-08-30T05:06:37;11.90;;;7.82;;
31004;SDS011;17676;52.254;4.490;2023-08-30T05:09:03;11.57;;;7.75;;
31004;SDS011;17676;52.254;4.490;2023-08-30T05:11:28;12.25;;;7.50;;
31004;SDS011;17676;52.254;4.490;2023-08-30T05:13:55;10.15;;;7.13;;
31004;SDS011;17676;52.254;4.490;2023-08-30T05:16:21;10.15;;;7.72;;
31004;SDS011;17676;52.254;4.490;2023-08-30T05:18:47;10.38;;;7.93;;
31004;SDS011;17676;52.254;4.490;2023-08-30T05:21:33;9.35;;;8.07;;
31004;SDS011;17676;52.254;4.490;2023-08-30T05:23:59;9.98;;;7.93;;
31004;SDS011;17676;52.254;4.490;2023-08-30T05:26:27;13.85;;;8.95;;
31004;SDS011;17676;52.254;4.490;2023-08-30T05:28:53;12.23;;;8.13;;
31004;SDS011;17676;52.254;4.490;2023-08-30T05:31:19;9.13;;;7.85;;
31004;SDS011;17676;52.254;4.490;2023-08-30T05:33:44;15.38;;;8.43;;
31004;SDS011;17676;52.254;4.490;2023-08-30T05:36:10;14.40;;;8.85;;
31004;SDS011;17676;52.254;4.490;2023-08-30T05:38:36;12.52;;;9.50;;
31004;SDS011;17676;52.254;4.490;2023-08-30T05:41:01;14.40;;;9.68;;
31004;SDS011;17676;52.254;4.490;2023-08-30T05:43:27;13.02;;;8.80;;
31004;SDS011;17676;52.254;4.490;2023-08-30T05:45:53;15.63;;;9.93;;
31004;SDS011;17676;52.254;4.490;2023-08-30T05:48:18;15.35;;;10.10;;
31004;SDS011;17676;52.254;4.490;2023-08-30T05:50:44;16.02;;;10.88;;
31004;SDS011;17676;52.254;4.490;2023-08-30T05:53:10;14.60;;;10.88;;
31004;SDS011;17676;52.254;4.490;2023-08-30T05:55:36;15.20;;;11.02;;
31004;SDS011;17676;52.254;4.490;2023-08-30T05:58:02;19.33;;;11.63;;
31004;SDS011;17676;52.254;4.490;2023-08-30T06:00:28;15.32;;;11.38;;
31004;SDS011;17676;52.254;4.490;2023-08-30T06:02:53;15.27;;;11.70;;
31004;SDS011;17676;52.254;4.490;2023-08-30T06:05:19;16.40;;;12.48;;
31004;SDS011;17676;52.254;4.490;2023-08-30T06:07:45;21.42;;;13.05;;
31004;SDS011;17676;52.254;4.490;2023-08-30T06:10:13;15.70;;;12.32;;
31004;SDS011;17676;52.254;4.490;2023-08-30T06:12:44;17.95;;;12.77;;
31004;SDS011;17676;52.254;4.490;2023-08-30T06:15:10;19.73;;;13.15;;
31004;SDS011;17676;52.254;4.490;2023-08-30T06:17:38;20.05;;;14.02;;
31004;SDS011;17676;52.254;4.490;2023-08-30T06:20:10;23.40;;;13.95;;
31004;SDS011;17676;52.254;4.490;2023-08-30T06:22:36;22.42;;;14.57;;
31004;SDS011;17676;52.254;4.490;2023-08-30T06:25:01;19.30;;;14.88;;
31004;SDS011;17676;52.254;4.490;2023-08-30T06:27:29;19.33;;;14.05;;
31004;SDS011;17676;52.254;4.490;2023-08-30T06:29:55;20.95;;;14.95;;
31004;SDS011;17676;52.254;4.490;2023-08-30T06:32:23;18.38;;;14.52;;
31004;SDS011;17676;52.254;4.490;2023-08-30T06:34:49;21.80;;;15.48;;
31004;SDS011;17676;52.254;4.490;2023-08-30T06:37:15;23.30;;;15.90;;
31004;SDS011;17676;52.254;4.490;2023-08-30T06:39:40;19.30;;;15.65;;
31004;SDS011;17676;52.254;4.490;2023-08-30T06:42:06;21.33;;;15.82;;
31004;SDS011;17676;52.254;4.490;2023-08-30T06:44:32;20.80;;;15.07;;
31004;SDS011;17676;52.254;4.490;2023-08-30T06:46:58;21.75;;;16.17;;
31004;SDS011;17676;52.254;4.490;2023-08-30T06:49:24;21.77;;;16.45;;
31004;SDS011;17676;52.254;4.490;2023-08-30T06:51:50;21.30;;;17.08;;
31004;SDS011;17676;52.254;4.490;2023-08-30T06:54:16;22.73;;;17.52;;
31004;SDS011;17676;52.254;4.490;2023-08-30T06:56:45;21.17;;;15.55;;
31004;SDS011;17676;52.254;4.490;2023-08-30T06:59:22;20.00;;;15.90;;
31004;SDS011;17676;52.254;4.490;2023-08-30T07:01:48;17.98;;;15.00;;
31004;SDS011;17676;52.254;4.490;2023-08-30T07:04:14;16.88;;;13.57;;
31004;SDS011;17676;52.254;4.490;2023-08-30T07:06:40;21.50;;;16.15;;
31004;SDS011;17676;52.254;4.490;2023-08-30T07:09:06;18.20;;;14.85;;
31004;SDS011;17676;52.254;4.490;2023-08-30T07:11:32;18.15;;;14.15;;
31004;SDS011;17676;52.254;4.490;2023-08-30T07:13:59;19.90;;;14.43;;
31004;SDS011;17676;52.254;4.490;2023-08-30T07:16:27;19.08;;;14.05;;
31004;SDS011;17676;52.254;4.490;2023-08-30T07:18:53;18.17;;;14.65;;
31004;SDS011;17676;52.254;4.490;2023-08-30T07:21:19;15.02;;;13.27;;
31004;SDS011;17676;52.254;4.490;2023-08-30T07:23:45;18.13;;;13.82;;
31004;SDS011;17676;52.254;4.490;2023-08-30T07:26:11;17.83;;;14.57;;
31004;SDS011;17676;52.254;4.490;2023-08-30T07:28:36;14.32;;;12.15;;
31004;SDS011;17676;52.254;4.490;2023-08-30T07:31:07;17.13;;;13.48;;
31004;SDS011;17676;52.254;4.490;2023-08-30T07:33:53;17.65;;;13.32;;
31004;SDS011;17676;52.254;4.490;2023-08-30T07:36:20;13.25;;;11.63;;
31004;SDS011;17676;52.254;4.490;2023-08-30T07:38:46;17.25;;;11.88;;
31004;SDS011;17676;52.254;4.490;2023-08-30T07:41:15;12.48;;;11.15;;
31004;SDS011;17676;52.254;4.490;2023-08-30T07:43:41;12.65;;;10.75;;
31004;SDS011;17676;52.254;4.490;2023-08-30T07:46:07;11.48;;;10.30;;
31004;SDS011;17676;52.254;4.490;2023-08-30T07:48:33;12.65;;;9.85;;
31004;SDS011;17676;52.254;4.490;2023-08-30T07:50:58;11.07;;;9.93;;
31004;SDS011;17676;52.254;4.490;2023-08-30T07:53:24;10.55;;;9.30;;
31004;SDS011;17676;52.254;4.490;2023-08-30T07:55:50;11.85;;;9.32;;
31004;SDS011;17676;52.254;4.490;2023-08-30T07:58:16;9.00;;;8.00;;
31004;SDS011;17676;52.254;4.490;2023-08-30T08:00:42;10.52;;;9.50;;
31004;SDS011;17676;52.254;4.490;2023-08-30T08:03:11;10.15;;;9.18;;
31004;SDS011;17676;52.254;4.490;2023-08-30T08:05:37;9.90;;;9.00;;
31004;SDS011;17676;52.254;4.490;2023-08-30T08:08:03;10.93;;;9.82;;
31004;SDS011;17676;52.254;4.490;2023-08-30T08:10:32;10.95;;;9.80;;
31004;SDS011;17676;52.254;4.490;2023-08-30T08:13:02;10.68;;;9.75;;
31004;SDS011;17676;52.254;4.490;2023-08-30T08:15:31;10.88;;;9.80;;
31004;SDS011;17676;52.254;4.490;2023-08-30T08:17:57;11.77;;;9.98;;
31004;SDS011;17676;52.254;4.490;2023-08-30T08:20:23;11.82;;;10.73;;
31004;SDS011;17676;52.254;4.490;2023-08-30T08:22:48;13.55;;;12.25;;
31004;SDS011;17676;52.254;4.490;2023-08-30T08:25:14;13.02;;;11.88;;
31004;SDS011;17676;52.254;4.490;2023-08-30T08:27:41;12.38;;;11.32;;
31004;SDS011;17676;52.254;4.490;2023-08-30T08:30:07;11.68;;;10.63;;
31004;SDS011;17676;52.254;4.490;2023-08-30T08:32:35;11.50;;;10.40;;
31004;SDS011;17676;52.254;4.490;2023-08-30T08:35:01;13.77;;;12.57;;
31004;SDS011;17676;52.254;4.490;2023-08-30T08:37:31;8.70;;;7.90;;
31004;SDS011;17676;52.254;4.490;2023-08-30T08:39:57;5.32;;;4.93;;
31004;SDS011;17676;52.254;4.490;2023-08-30T08:42:30;4.07;;;3.70;;
31004;SDS011;17676;52.254;4.490;2023-08-30T08:44:57;8.10;;;2.70;;
31004;SDS011;17676;52.254;4.490;2023-08-30T08:47:25;2.22;;;2.00;;
31004;SDS011;17676;52.254;4.490;2023-08-30T08:49:51;2.67;;;2.35;;
31004;SDS011;17676;52.254;4.490;2023-08-30T08:52:19;5.03;;;1.55;;
31004;SDS011;17676;52.254;4.490;2023-08-30T08:54:45;3.38;;;2.05;;
31004;SDS011;17676;52.254;4.490;2023-08-30T08:57:11;2.50;;;1.73;;
31004;SDS011;17676;52.254;4.490;2023-08-30T08:59:37;4.10;;;1.45;;
31004;SDS011;17676;52.254;4.490;2023-08-30T09:02:06;3.13;;;1.60;;
31004;SDS011;17676;52.254;4.490;2023-08-30T09:04:34;3.22;;;1.00;;
31004;SDS011;17676;52.254;4.490;2023-08-30T09:07:00;1.90;;;0.50;;
31004;SDS011;17676;52.254;4.490;2023-08-30T09:09:28;2.15;;;0.40;;
31004;SDS011;17676;52.254;4.490;2023-08-30T09:11:55;1.58;;;0.30;;
31004;SDS011;17676;52.254;4.490;2023-08-30T09:14:21;1.33;;;0.30;;
31004;SDS011;17676;52.254;4.490;2023-08-30T09:19:21;1.55;;;0.38;;
31004;SDS011;17676;52.254;4.490;2023-08-30T09:21:50;1.35;;;0.30;;
31004;SDS011;17676;52.254;4.490;2023-08-30T09:24:23;1.92;;;0.40;;
31004;SDS011;17676;52.254;4.490;2023-08-30T09:26:50;4.32;;;0.63;;
31004;SDS011;17676;52.254;4.490;2023-08-30T09:29:18;2.15;;;0.50;;
31004;SDS011;17676;52.254;4.490;2023-08-30T09:31:44;1.80;;;0.40;;
31004;SDS011;17676;52.254;4.490;2023-08-30T09:34:10;3.97;;;0.47;;
31004;SDS011;17676;52.254;4.490;2023-08-30T09:36:42;3.63;;;0.47;;
31004;SDS011;17676;52.254;4.490;2023-08-30T09:39:10;5.85;;;0.40;;
31004;SDS011;17676;52.254;4.490;2023-08-30T09:41:40;3.80;;;0.50;;
31004;SDS011;17676;52.254;4.490;2023-08-30T09:44:16;6.07;;;0.52;;
31004;SDS011;17676;52.254;4.490;2023-08-30T09:46:46;5.70;;;0.63;;
31004;SDS011;17676;52.254;4.490;2023-08-30T09:49:14;5.40;;;0.65;;
31004;SDS011;17676;52.254;4.490;2023-08-30T09:51:42;9.23;;;1.15;;
31004;SDS011;17676;52.254;4.490;2023-08-30T09:54:15;7.28;;;0.65;;
31004;SDS011;17676;52.254;4.490;2023-08-30T09:56:43;5.15;;;0.50;;
31004;SDS011;17676;52.254;4.490;2023-08-30T09:59:10;4.47;;;0.70;;
31004;SDS011;17676;52.254;4.490;2023-08-30T10:01:40;5.55;;;0.57;;
31004;SDS011;17676;52.254;4.490;2023-08-30T10:04:07;4.93;;;1.00;;
31004;SDS011;17676;52.254;4.490;2023-08-30T10:06:39;6.07;;;0.60;;
31004;SDS011;17676;52.254;4.490;2023-08-30T10:09:10;6.95;;;0.50;;
31004;SDS011;17676;52.254;4.490;2023-08-30T10:11:38;2.47;;;0.45;;
31004;SDS011;17676;52.254;4.490;2023-08-30T10:14:04;8.05;;;0.75;;
31004;SDS011;17676;52.254;4.490;2023-08-30T10:16:42;8.73;;;0.73;;
31004;SDS011;17676;52.254;4.490;2023-08-30T10:19:25;9.02;;;0.68;;
31004;SDS011;17676;52.254;4.490;2023-08-30T10:21:58;6.38;;;0.82;;
31004;SDS011;17676;52.254;4.490;2023-08-30T10:24:29;5.68;;;0.73;;
31004;SDS011;17676;52.254;4.490;2023-08-30T10:27:08;6.32;;;0.70;;
31004;SDS011;17676;52.254;4.490;2023-08-30T10:29:37;11.43;;;0.70;;
31004;SDS011;17676;52.254;4.490;2023-08-30T10:32:04;9.90;;;0.95;;
31004;SDS011;17676;52.254;4.490;2023-08-30T10:34:35;5.80;;;0.85;;
31004;SDS011;17676;52.254;4.490;2023-08-30T10:37:02;5.60;;;0.50;;
31004;SDS011;17676;52.254;4.490;2023-08-30T10:39:36;4.18;;;0.60;;
31004;SDS011;17676;52.254;4.490;2023-08-30T10:42:10;7.43;;;0.95;;
31004;SDS011;17676;52.254;4.490;2023-08-30T10:45:06;3.38;;;0.40;;
31004;SDS011;17676;52.254;4.490;2023-08-30T10:47:33;4.60;;;0.50;;
31004;SDS011;17676;52.254;4.490;2023-08-30T10:50:12;5.88;;;0.45;;
31004;SDS011;17676;52.254;4.490;2023-08-30T10:52:42;3.75;;;0.50;;
31004;SDS011;17676;52.254;4.490;2023-08-30T10:55:16;7.25;;;0.60;;
31004;SDS011;17676;52.254;4.490;2023-08-30T10:57:57;6.28;;;0.65;;
31004;SDS011;17676;52.254;4.490;2023-08-30T11:00:25;4.68;;;0.50;;
31004;SDS011;17676;52.254;4.490;2023-08-30T11:02:53;6.68;;;0.50;;
31004;SDS011;17676;52.254;4.490;2023-08-30T11:05:23;4.57;;;0.60;;
31004;SDS011;17676;52.254;4.490;2023-08-30T11:07:50;3.47;;;0.35;;
31004;SDS011;17676;52.254;4.490;2023-08-30T11:10:17;4.00;;;0.50;;
31004;SDS011;17676;52.254;4.490;2023-08-30T11:12:44;9.18;;;0.70;;
31004;SDS011;17676;52.254;4.490;2023-08-30T11:15:11;7.45;;;0.68;;
31004;SDS011;17676;52.254;4.490;2023-08-30T11:17:39;8.18;;;0.77;;
31004;SDS011;17676;52.254;4.490;2023-08-30T11:20:10;4.55;;;0.40;;
31004;SDS011;17676;52.254;4.490;2023-08-30T11:22:42;5.97;;;0.60;;
31004;SDS011;17676;52.254;4.490;2023-08-30T11:25:11;3.22;;;0.45;;
31004;SDS011;17676;52.254;4.490;2023-08-30T11:27:38;12.18;;;1.42;;
31004;SDS011;17676;52.254;4.490;2023-08-30T11:30:05;6.72;;;0.40;;
31004;SDS011;17676;52.254;4.490;2023-08-30T11:32:33;5.85;;;0.43;;
31004;SDS011;17676;52.254;4.490;2023-08-30T11:35:00;4.60;;;0.50;;
31004;SDS011;17676;52.254;4.490;2023-08-30T11:37:27;8.63;;;0.93;;
31004;SDS011;17676;52.254;4.490;2023-08-30T11:39:53;3.88;;;0.50;;
31004;SDS011;17676;52.254;4.490;2023-08-30T11:42:20;3.60;;;0.70;;
31004;SDS011;17676;52.254;4.490;2023-08-30T11:44:47;5.07;;;0.57;;
31004;SDS011;17676;52.254;4.490;2023-08-30T11:47:23;18.65;;;1.30;;
31004;SDS011;17676;52.254;4.490;2023-08-30T11:49:49;5.63;;;0.45;;
31004;SDS011;17676;52.254;4.490;2023-08-30T11:55:38;4.75;;;0.30;;
31004;SDS011;17676;52.254;4.490;2023-08-30T11:58:05;5.93;;;0.30;;
31004;SDS011;17676;52.254;4.490;2023-08-30T12:00:35;2.83;;;0.30;;
31004;SDS011;17676;52.254;4.490;2023-08-30T12:03:04;7.00;;;0.63;;
31004;SDS011;17676;52.254;4.490;2023-08-30T12:05:30;6.65;;;0.50;;
31004;SDS011;17676;52.254;4.490;2023-08-30T12:07:59;7.38;;;0.50;;
31004;SDS011;17676;52.254;4.490;2023-08-30T12:10:26;6.28;;;0.35;;
31004;SDS011;17676;52.254;4.490;2023-08-30T12:12:53;4.30;;;0.40;;
31004;SDS011;17676;52.254;4.490;2023-08-30T12:15:22;5.50;;;0.52;;
31004;SDS011;17676;52.254;4.490;2023-08-30T12:17:49;6.55;;;0.50;;
31004;SDS011;17676;52.254;4.490;2023-08-30T12:20:15;2.90;;;0.20;;
31004;SDS011;17676;52.254;4.490;2023-08-30T12:22:42;4.90;;;0.50;;
31004;SDS011;17676;52.254;4.490;2023-08-30T12:27:43;1.90;;;0.20;;
31004;SDS011;17676;52.254;4.490;2023-08-30T12:30:09;2.38;;;0.73;;
31004;SDS011;17676;52.254;4.490;2023-08-30T12:32:35;4.43;;;0.30;;
31004;SDS011;17676;52.254;4.490;2023-08-30T12:35:01;7.13;;;0.50;;
31004;SDS011;17676;52.254;4.490;2023-08-30T12:37:27;4.10;;;0.50;;
31004;SDS011;17676;52.254;4.490;2023-08-30T12:39:52;6.43;;;0.32;;
31004;SDS011;17676;52.254;4.490;2023-08-30T12:42:18;3.50;;;0.30;;
31004;SDS011;17676;52.254;4.490;2023-08-30T12:44:44;5.25;;;0.55;;
31004;SDS011;17676;52.254;4.490;2023-08-30T12:47:10;2.90;;;0.20;;
31004;SDS011;17676;52.254;4.490;2023-08-30T12:49:39;2.58;;;0.20;;
31004;SDS011;17676;52.254;4.490;2023-08-30T12:52:05;3.25;;;0.30;;
31004;SDS011;17676;52.254;4.490;2023-08-30T12:54:31;2.72;;;0.30;;
31004;SDS011;17676;52.254;4.490;2023-08-30T12:56:57;5.20;;;0.30;;
31004;SDS011;17676;52.254;4.490;2023-08-30T12:59:22;2.40;;;0.20;;
31004;SDS011;17676;52.254;4.490;2023-08-30T13:01:48;3.42;;;0.20;;
31004;SDS011;17676;52.254;4.490;2023-08-30T13:04:13;6.65;;;0.30;;
31004;SDS011;17676;52.254;4.490;2023-08-30T13:06:39;4.43;;;0.20;;
31004;SDS011;17676;52.254;4.490;2023-08-30T13:09:05;2.33;;;0.20;;
31004;SDS011;17676;52.254;4.490;2023-08-30T13:11:31;5.82;;;0.22;;
31004;SDS011;17676;52.254;4.490;2023-08-30T13:13:59;2.72;;;0.20;;
31004;SDS011;17676;52.254;4.490;2023-08-30T13:16:25;5.22;;;0.40;;
31004;SDS011;17676;52.254;4.490;2023-08-30T13:18:53;3.30;;;0.22;;
31004;SDS011;17676;52.254;4.490;2023-08-30T13:21:19;3.38;;;0.30;;
31004;SDS011;17676;52.254;4.490;2023-08-30T13:23:45;2.75;;;0.20;;
31004;SDS011;17676;52.254;4.490;2023-08-30T13:26:10;1.58;;;0.20;;
31004;SDS011;17676;52.254;4.490;2023-08-30T13:28:36;8.00;;;0.35;;
31004;SDS011;17676;52.254;4.490;2023-08-30T13:31:01;7.25;;;0.40;;
31004;SDS011;17676;52.254;4.490;2023-08-30T13:33:27;7.93;;;0.52;;
31004;SDS011;17676;52.254;4.490;2023-08-30T13:35:53;5.32;;;0.35;;
31004;SDS011;17676;52.254;4.490;2023-08-30T13:38:18;6.82;;;0.60;;
31004;SDS011;17676;52.254;4.490;2023-08-30T13:40:44;7.15;;;0.30;;
31004;SDS011;17676;52.254;4.490;2023-08-30T13:43:13;8.70;;;0.60;;
31004;SDS011;17676;52.254;4.490;2023-08-30T13:45:38;3.00;;;0.30;;
31004;SDS011;17676;52.254;4.490;2023-08-30T13:48:06;3.95;;;0.20;;
31004;SDS011;17676;52.254;4.490;2023-08-30T13:50:32;2.63;;;0.13;;
31004;SDS011;17676;52.254;4.490;2023-08-30T13:52:58;2.45;;;0.38;;
31004;SDS011;17676;52.254;4.490;2023-08-30T13:55:23;6.28;;;0.20;;
31004;SDS011;17676;52.254;4.490;2023-08-30T13:57:50;5.32;;;0.30;;
31004;SDS011;17676;52.254;4.490;2023-08-30T14:00:16;3.97;;;0.30;;
31004;SDS011;17676;52.254;4.490;2023-08-30T14:02:42;5.00;;;0.30;;
31004;SDS011;17676;52.254;4.490;2023-08-30T14:05:07;1.42;;;0.15;;
31004;SDS011;17676;52.254;4.490;2023-08-30T14:07:33;5.28;;;1.00;;
31004;SDS011;17676;52.254;4.490;2023-08-30T14:09:59;8.05;;;0.20;;
31004;SDS011;17676;52.254;4.490;2023-08-30T14:12:25;4.20;;;0.40;;
31004;SDS011;17676;52.254;4.490;2023-08-30T14:14:50;4.22;;;0.20;;
31004;SDS011;17676;52.254;4.490;2023-08-30T14:17:18;3.47;;;0.30;;
31004;SDS011;17676;52.254;4.490;2023-08-30T14:19:43;4.50;;;0.30;;
31004;SDS011;17676;52.254;4.490;2023-08-30T14:22:09;6.55;;;0.38;;
31004;SDS011;17676;52.254;4.490;2023-08-30T14:24:35;4.13;;;0.30;;
31004;SDS011;17676;52.254;4.490;2023-08-30T14:27:01;5.63;;;0.47;;
31004;SDS011;17676;52.254;4.490;2023-08-30T14:29:26;4.43;;;0.38;;
31004;SDS011;17676;52.254;4.490;2023-08-30T14:31:57;1.77;;;0.28;;
31004;SDS011;17676;52.254;4.490;2023-08-30T14:34:26;3.20;;;0.30;;
31004;SDS011;17676;52.254;4.490;2023-08-30T14:36:52;3.38;;;0.30;;
31004;SDS011;17676;52.254;4.490;2023-08-30T14:39:18;4.45;;;0.30;;
31004;SDS011;17676;52.254;4.490;2023-08-30T14:41:47;5.55;;;0.70;;
31004;SDS011;17676;52.254;4.490;2023-08-30T14:44:13;2.38;;;0.40;;
31004;SDS011;17676;52.254;4.490;2023-08-30T14:46:38;3.45;;;0.25;;
31004;SDS011;17676;52.254;4.490;2023-08-30T14:49:04;2.42;;;0.20;;
31004;SDS011;17676;52.254;4.490;2023-08-30T14:51:30;3.00;;;0.30;;
31004;SDS011;17676;52.254;4.490;2023-08-30T14:53:56;2.78;;;0.13;;
31004;SDS011;17676;52.254;4.490;2023-08-30T14:56:21;5.25;;;0.40;;